メインページ
METAR-TAF:

METAR-TAF

空港 :

キング・アブドゥルアズィーズ国際空港

ジッダ, サウジアラビア

緯度: 21-42N, 経度: 039-11E, 海抜: 15m

現時点の気象観測

当レポートは19分前の11:00(UTC)に作成
西の風 6kt
気温 29°C
湿度 62%
気圧 1007 hPa
視程10km以上
高度3000ftの雲はほとんどない, 積乱雲.
高度4000ftの雲は散在している

METAR: OEJN 141100Z 28006KT 9999 FEW030CB SCT040 29/21 Q1007 NOSIG

時間: 14:19 (11:19 UTC)

予報

当レポートは6時間19分前の05:00(UTC)に作成
予報は14日の 06時(UTC)から 15日の 12時(UTC)まで有効
の風 8kt、最大18ktの突風を伴う
視程: 7000m
高度4000ftの雲は散在している
高度10000ftの千切れ雲あり
14日の 06時(UTC)から 14日の 16時(UTC)まで一時的に
視程: 4000m
高度3500ftの雲はほとんどない, 積乱雲.
高度4000ftの千切れ雲あり
高度10000ftの曇り
激しい雷雨, 雨

TAF: OEJN 140500Z 1406/1512 36008G18KT 7000 SCT040 BKN100 TEMPO 1406/1416 4000 TSRA FEW035CB BKN040 OVC100

4,000以上の空港の気象観測と天気予報(METAR報とTAF報)

利用可能な観測所は地図上に黄色い丸と赤い丸で示す。

丸の上にカーソルを重ねると観測所名を参照できる。

次にクリックすると気象観測と天気予報を参照できる。

マップの切り替え:黒色「×」印の緑ボタンをクリックして拡大、「-」印の緑ボタンをクリックして縮小、緑色の三角印をクリックして隣りの地図に切り替え


METAR-TAF: